createdAt,value
2017-12-19T00:01:11.942Z,93.50
2017-12-19T00:03:41.028Z,93.60
2017-12-19T00:06:09.328Z,93.50
2017-12-19T00:08:38.402Z,93.60
2017-12-19T00:11:06.708Z,93.60
2017-12-19T00:13:35.780Z,93.60
2017-12-19T00:16:04.074Z,93.60
2017-12-19T00:18:32.404Z,93.60
2017-12-19T00:21:00.720Z,93.50
2017-12-19T00:23:29.040Z,93.60
2017-12-19T00:25:58.148Z,93.60
2017-12-19T00:28:26.468Z,93.60
2017-12-19T00:30:54.790Z,93.60
2017-12-19T00:33:23.102Z,93.60
2017-12-19T00:35:52.250Z,93.60
2017-12-19T00:38:20.556Z,93.50
2017-12-19T00:40:48.876Z,93.40
2017-12-19T00:43:17.842Z,93.40
2017-12-19T00:45:46.903Z,93.50
2017-12-19T00:48:15.219Z,93.80
2017-12-19T00:50:44.300Z,93.40
2017-12-19T00:53:13.453Z,93.40
2017-12-19T00:55:41.802Z,93.40
2017-12-19T00:58:10.870Z,93.40
2017-12-19T01:00:39.188Z,93.40
2017-12-19T01:03:08.261Z,93.30
2017-12-19T01:05:36.591Z,93.30
2017-12-19T01:08:04.918Z,93.40
2017-12-19T01:10:33.219Z,93.40
2017-12-19T01:13:01.530Z,93.40
2017-12-19T01:15:29.839Z,93.40
2017-12-19T01:17:58.129Z,93.40
2017-12-19T01:20:26.433Z,93.30
2017-12-19T01:22:54.766Z,93.20
2017-12-19T01:25:23.083Z,93.60
2017-12-19T01:27:51.396Z,93.30
2017-12-19T01:30:20.476Z,93.40
2017-12-19T01:32:48.786Z,93.40
2017-12-19T01:35:17.851Z,93.40
2017-12-19T01:37:46.157Z,93.40
2017-12-19T01:40:15.235Z,93.40
2017-12-19T01:42:43.555Z,93.30
2017-12-19T01:45:11.981Z,93.30
2017-12-19T01:47:40.292Z,93.30
2017-12-19T01:50:08.619Z,93.30
2017-12-19T01:52:36.933Z,93.30
2017-12-19T01:55:05.250Z,93.40
2017-12-19T01:57:35.095Z,93.30
2017-12-19T02:00:03.393Z,93.30
2017-12-19T02:02:31.693Z,93.30
2017-12-19T02:05:00.005Z,93.30
2017-12-19T02:07:29.110Z,93.20
2017-12-19T02:09:57.423Z,93.10
2017-12-19T02:12:26.577Z,93.10
2017-12-19T02:14:54.875Z,93.10
2017-12-19T02:17:23.949Z,93.00
2017-12-19T02:19:52.255Z,93.00
2017-12-19T02:22:21.335Z,92.80
2017-12-19T02:24:49.623Z,92.80
2017-12-19T02:27:17.927Z,92.80
2017-12-19T02:29:46.986Z,92.80
2017-12-19T02:32:15.313Z,92.80
2017-12-19T02:34:43.643Z,92.80
2017-12-19T02:37:11.951Z,92.90
2017-12-19T02:39:40.249Z,92.90
2017-12-19T02:42:08.566Z,92.80
2017-12-19T02:44:36.883Z,92.80
2017-12-19T02:47:05.188Z,92.80
2017-12-19T02:49:34.520Z,92.80
2017-12-19T02:52:02.817Z,92.80
2017-12-19T02:54:31.137Z,92.80
2017-12-19T02:56:59.476Z,92.70
2017-12-19T02:59:27.813Z,92.70
2017-12-19T03:01:56.955Z,92.90
2017-12-19T03:04:25.351Z,92.80
2017-12-19T03:06:53.665Z,93.10
2017-12-19T03:09:21.959Z,92.80
2017-12-19T03:11:50.257Z,93.10
2017-12-19T03:14:19.327Z,92.80
2017-12-19T03:16:47.655Z,92.80
2017-12-19T03:19:15.953Z,92.80
2017-12-19T03:21:44.248Z,92.80
2017-12-19T03:24:12.601Z,92.70
2017-12-19T03:26:40.915Z,92.80
2017-12-19T03:29:10.005Z,92.80
2017-12-19T03:31:38.311Z,92.90
2017-12-19T03:34:06.613Z,92.70
2017-12-19T03:36:35.679Z,92.60
2017-12-19T03:39:04.013Z,92.60
2017-12-19T03:41:32.325Z,92.70
2017-12-19T03:44:00.624Z,92.70
2017-12-19T03:46:28.926Z,92.60
2017-12-19T03:48:57.243Z,92.60
2017-12-19T03:51:25.601Z,92.80
2017-12-19T03:53:54.717Z,92.60
2017-12-19T03:56:22.983Z,92.50
2017-12-19T03:58:52.060Z,92.70
2017-12-19T04:01:20.377Z,92.70
2017-12-19T04:03:49.438Z,92.60
2017-12-19T04:06:17.741Z,92.60
2017-12-19T04:08:46.811Z,92.60
2017-12-19T04:11:15.119Z,92.60
2017-12-19T04:13:43.426Z,92.60
2017-12-19T04:16:11.735Z,92.50
2017-12-19T04:18:40.033Z,92.40
2017-12-19T04:21:08.340Z,92.30
2017-12-19T04:23:36.641Z,92.30
2017-12-19T04:26:06.373Z,92.50
2017-12-19T04:28:34.682Z,92.50
2017-12-19T04:31:02.997Z,92.50
2017-12-19T04:33:32.075Z,92.50
2017-12-19T04:36:00.379Z,92.40
2017-12-19T04:38:28.708Z,92.50
2017-12-19T04:40:57.087Z,92.50
2017-12-19T04:43:25.413Z,92.40
2017-12-19T04:45:53.739Z,92.50
2017-12-19T04:48:22.029Z,92.50
2017-12-19T04:50:50.344Z,92.40
2017-12-19T04:53:18.657Z,92.40
2017-12-19T04:55:46.947Z,92.40
2017-12-19T04:58:16.017Z,92.20
2017-12-19T05:00:44.321Z,92.20
2017-12-19T05:03:13.415Z,92.20
2017-12-19T05:05:41.719Z,92.20
2017-12-19T05:08:10.779Z,92.10
2017-12-19T05:10:39.130Z,92.10
2017-12-19T05:13:07.435Z,92.10
2017-12-19T05:15:35.809Z,92.10
2017-12-19T05:18:04.123Z,92.10
2017-12-19T05:20:32.457Z,92.20
2017-12-19T05:23:00.768Z,92.20
2017-12-19T05:25:29.097Z,92.00
2017-12-19T05:27:57.438Z,92.00
2017-12-19T05:30:26.591Z,92.00
2017-12-19T05:32:54.898Z,92.00
2017-12-19T05:35:23.223Z,92.00
2017-12-19T05:37:52.298Z,92.20
2017-12-19T05:40:20.611Z,92.20
2017-12-19T05:42:49.673Z,92.20
2017-12-19T05:45:17.982Z,92.20
2017-12-19T05:47:47.054Z,92.40
2017-12-19T05:50:15.400Z,92.40
2017-12-19T05:52:43.821Z,92.40
2017-12-19T05:55:12.127Z,92.50
2017-12-19T05:57:40.472Z,92.50
2017-12-19T06:00:08.764Z,92.50
2017-12-19T06:02:37.085Z,92.50
2017-12-19T06:05:06.168Z,92.60
2017-12-19T06:07:34.467Z,92.60
2017-12-19T06:10:03.558Z,92.70
2017-12-19T06:12:32.640Z,92.70
2017-12-19T06:15:00.942Z,92.60
2017-12-19T06:17:30.396Z,92.70
2017-12-19T06:19:58.698Z,92.70
2017-12-19T06:22:26.998Z,92.70
2017-12-19T06:24:55.296Z,92.70
2017-12-19T06:27:24.389Z,92.60
2017-12-19T06:29:53.455Z,92.70
2017-12-19T06:32:22.899Z,92.70
2017-12-19T06:34:51.977Z,92.70
2017-12-19T06:37:20.274Z,92.70
2017-12-19T06:39:48.588Z,92.70
2017-12-19T06:42:16.904Z,92.70
2017-12-19T06:44:45.223Z,92.60
2017-12-19T06:47:14.621Z,92.70
2017-12-19T06:49:43.101Z,92.70
2017-12-19T06:52:11.553Z,92.60
2017-12-19T06:54:39.880Z,92.60
2017-12-19T06:57:09.044Z,92.50
2017-12-19T06:59:37.356Z,92.50
2017-12-19T07:02:05.673Z,92.60
2017-12-19T07:04:34.076Z,92.50
2017-12-19T07:07:02.372Z,92.60
2017-12-19T07:09:30.791Z,92.50
2017-12-19T07:11:59.101Z,92.50
2017-12-19T07:14:27.415Z,92.50
2017-12-19T07:16:55.740Z,92.40
2017-12-19T07:19:24.844Z,92.10
2017-12-19T07:21:54.121Z,92.00
2017-12-19T07:24:22.460Z,92.10
2017-12-19T07:26:50.770Z,92.00
2017-12-19T07:29:19.090Z,92.00
2017-12-19T07:31:48.164Z,91.90
2017-12-19T07:34:16.462Z,91.90
2017-12-19T07:36:45.562Z,91.80
2017-12-19T07:39:14.634Z,91.90
2017-12-19T07:41:42.948Z,91.70
2017-12-19T07:44:12.077Z,91.60
2017-12-19T07:46:40.408Z,91.60
2017-12-19T07:49:09.297Z,91.60
2017-12-19T07:51:37.658Z,91.60
2017-12-19T07:54:06.063Z,91.60
2017-12-19T07:56:34.372Z,91.60
2017-12-19T07:59:02.700Z,91.60
2017-12-19T08:01:30.997Z,91.60
2017-12-19T08:03:59.324Z,91.50
2017-12-19T08:06:28.392Z,91.40
2017-12-19T08:08:56.692Z,91.40
2017-12-19T08:11:25.832Z,91.20
2017-12-19T08:13:58.872Z,91.10
2017-12-19T08:16:27.973Z,90.90
2017-12-19T08:18:56.280Z,90.90
2017-12-19T08:21:25.361Z,90.80
2017-12-19T08:23:54.442Z,90.80
2017-12-19T08:26:22.757Z,90.80
2017-12-19T08:28:51.822Z,90.70
2017-12-19T08:31:20.123Z,90.70
2017-12-19T08:33:48.411Z,90.60
2017-12-19T08:36:17.508Z,90.40
2017-12-19T08:38:46.552Z,90.30
2017-12-19T08:41:14.864Z,90.30
2017-12-19T08:43:43.179Z,90.20
2017-12-19T08:46:11.546Z,90.10
2017-12-19T08:48:40.393Z,90.00
2017-12-19T08:51:08.702Z,90.00
2017-12-19T08:53:37.010Z,90.00
2017-12-19T08:56:06.089Z,89.50
2017-12-19T08:58:34.421Z,89.50
2017-12-19T09:01:03.601Z,89.60
2017-12-19T09:03:32.670Z,89.70
2017-12-19T09:06:00.990Z,89.50
2017-12-19T09:08:29.302Z,89.80
2017-12-19T09:10:57.613Z,89.20
2017-12-19T09:13:25.916Z,89.10
2017-12-19T09:15:55.042Z,88.90
2017-12-19T09:18:23.348Z,88.80
2017-12-19T09:20:51.708Z,88.70
2017-12-19T09:23:20.012Z,88.60
2017-12-19T09:25:48.312Z,88.60
2017-12-19T09:28:16.594Z,88.50
2017-12-19T09:30:44.906Z,88.20
2017-12-19T09:33:13.972Z,88.00
2017-12-19T09:35:42.274Z,87.90
2017-12-19T09:38:10.582Z,88.00
2017-12-19T09:40:39.651Z,88.00
2017-12-19T09:43:07.972Z,87.90
2017-12-19T09:45:36.278Z,87.60
2017-12-19T09:48:04.642Z,87.70
2017-12-19T09:50:32.958Z,87.60
2017-12-19T09:53:01.269Z,87.80
2017-12-19T09:55:30.516Z,87.50
2017-12-19T09:57:59.504Z,87.60
2017-12-19T10:00:27.865Z,87.50
2017-12-19T10:02:56.934Z,87.30
2017-12-19T10:05:25.242Z,87.30
2017-12-19T10:07:54.326Z,87.10
2017-12-19T10:10:22.625Z,87.10
2017-12-19T10:12:50.963Z,86.70
2017-12-19T10:15:19.314Z,87.00
2017-12-19T10:17:47.622Z,86.00
2017-12-19T10:20:15.936Z,85.50
2017-12-19T10:22:44.256Z,85.40
2017-12-19T10:25:12.557Z,85.40
2017-12-19T10:27:40.868Z,85.30
2017-12-19T10:30:09.174Z,84.90
2017-12-19T10:32:38.266Z,84.70
2017-12-19T10:35:06.581Z,84.60
2017-12-19T10:37:34.876Z,84.50
2017-12-19T10:40:03.182Z,84.60
2017-12-19T10:42:31.477Z,84.80
2017-12-19T10:44:59.785Z,85.00
2017-12-19T10:47:28.855Z,85.20
2017-12-19T10:49:57.163Z,85.10
2017-12-19T10:52:26.250Z,84.90
2017-12-19T10:54:54.550Z,84.80
2017-12-19T10:57:23.727Z,84.60
2017-12-19T10:59:52.811Z,84.80
2017-12-19T11:02:21.122Z,84.90
2017-12-19T11:04:50.188Z,84.80
2017-12-19T11:07:18.534Z,84.80
2017-12-19T11:09:46.877Z,84.80
2017-12-19T11:12:15.214Z,84.90
2017-12-19T11:14:43.510Z,84.90
2017-12-19T11:17:11.837Z,84.80
2017-12-19T11:19:40.902Z,85.10
2017-12-19T11:22:09.208Z,85.20
2017-12-19T11:24:38.320Z,85.20
2017-12-19T11:27:07.526Z,85.20
2017-12-19T11:29:36.689Z,85.60
2017-12-19T11:32:04.999Z,85.20
2017-12-19T11:34:34.093Z,84.00
2017-12-19T11:37:02.574Z,84.00
2017-12-19T11:39:31.672Z,83.90
2017-12-19T11:42:00.833Z,84.10
2017-12-19T11:44:29.193Z,84.10
2017-12-19T11:46:57.541Z,84.00
2017-12-19T11:49:26.636Z,84.10
2017-12-19T11:51:54.958Z,84.10
2017-12-19T11:54:23.284Z,84.00
2017-12-19T11:56:51.607Z,84.00
2017-12-19T11:59:19.946Z,84.20
2017-12-19T12:01:48.259Z,84.20
2017-12-19T12:04:17.353Z,84.30
2017-12-19T12:06:46.455Z,84.30
2017-12-19T12:09:14.761Z,84.20
2017-12-19T12:11:43.106Z,84.20
2017-12-19T12:14:11.416Z,84.40
2017-12-19T12:16:39.762Z,84.50
2017-12-19T12:19:08.087Z,84.50
2017-12-19T12:21:36.424Z,84.60
2017-12-19T12:24:04.747Z,84.50
2017-12-19T12:26:33.086Z,84.50
2017-12-19T12:29:01.405Z,84.70
2017-12-19T12:31:29.733Z,84.60
2017-12-19T12:33:58.064Z,84.40
2017-12-19T12:36:26.405Z,84.40
2017-12-19T12:38:54.816Z,84.40
2017-12-19T12:41:23.915Z,84.00
2017-12-19T12:43:53.001Z,83.90
2017-12-19T12:46:21.319Z,83.90
2017-12-19T12:48:49.627Z,84.00
2017-12-19T12:51:17.956Z,83.90
2017-12-19T12:53:47.051Z,83.50
2017-12-19T12:56:15.378Z,83.50
2017-12-19T12:58:43.832Z,83.50
2017-12-19T13:01:12.902Z,83.50
2017-12-19T13:03:41.220Z,83.50
2017-12-19T13:06:10.321Z,83.40
2017-12-19T13:08:38.628Z,83.40
2017-12-19T13:11:07.089Z,83.50
2017-12-19T13:13:35.487Z,83.70
2017-12-19T13:16:03.819Z,83.60
2017-12-19T13:18:32.295Z,83.60
2017-12-19T13:21:00.622Z,83.60
2017-12-19T13:23:28.931Z,83.70
2017-12-19T13:25:57.244Z,83.80
2017-12-19T13:28:25.555Z,83.70
2017-12-19T13:30:54.631Z,83.60
2017-12-19T13:33:22.940Z,83.50
2017-12-19T13:35:52.009Z,83.50
2017-12-19T13:38:20.367Z,83.50
2017-12-19T13:40:48.680Z,83.30
2017-12-19T13:43:17.012Z,83.30
2017-12-19T13:45:45.318Z,83.50
2017-12-19T13:48:13.638Z,83.30
2017-12-19T13:50:42.711Z,83.40
2017-12-19T13:53:11.037Z,83.40
2017-12-19T13:55:39.358Z,83.30
2017-12-19T13:58:07.897Z,83.40
2017-12-19T14:00:36.543Z,83.30
2017-12-19T14:03:05.751Z,83.10
2017-12-19T14:05:35.676Z,83.10
2017-12-19T14:08:05.142Z,83.10
2017-12-19T14:10:34.643Z,83.20
2017-12-19T14:13:02.983Z,83.20
2017-12-19T14:15:31.453Z,83.20
2017-12-19T14:18:00.615Z,84.50
2017-12-19T14:20:28.926Z,84.50
2017-12-19T14:22:57.249Z,84.50
2017-12-19T14:25:26.355Z,85.50
2017-12-19T14:27:54.688Z,84.60
2017-12-19T14:30:22.986Z,84.70
2017-12-19T14:32:51.301Z,84.90
2017-12-19T14:35:20.374Z,85.20
2017-12-19T14:37:48.700Z,85.20
2017-12-19T14:40:17.009Z,85.40
2017-12-19T14:42:45.336Z,85.50
2017-12-19T14:45:14.413Z,85.80
2017-12-19T14:47:42.746Z,85.70
2017-12-19T14:50:11.139Z,85.80
2017-12-19T14:52:39.446Z,86.00
2017-12-19T14:55:07.742Z,86.20
2017-12-19T14:57:36.061Z,86.50
2017-12-19T15:00:04.352Z,86.60
2017-12-19T15:02:39.028Z,86.80
2017-12-19T15:05:08.491Z,87.10
2017-12-19T15:07:37.587Z,87.10
2017-12-19T15:10:05.904Z,87.10
2017-12-19T15:12:34.735Z,87.30
2017-12-19T15:15:03.189Z,87.40
2017-12-19T15:17:32.000Z,87.50
2017-12-19T15:20:01.202Z,88.30
2017-12-19T15:22:29.851Z,87.60
2017-12-19T15:24:58.987Z,87.80
2017-12-19T15:27:27.286Z,87.80
2017-12-19T15:29:56.379Z,88.00
2017-12-19T15:32:29.345Z,88.00
2017-12-19T15:34:58.207Z,88.10
2017-12-19T15:37:27.354Z,88.30
2017-12-19T15:39:56.837Z,88.20
2017-12-19T15:42:27.346Z,89.30
2017-12-19T15:44:57.311Z,88.50
2017-12-19T15:47:28.018Z,89.50
2017-12-19T15:50:00.604Z,88.80
2017-12-19T15:52:29.875Z,88.90
2017-12-19T15:55:02.514Z,88.90
2017-12-19T15:57:31.071Z,89.00
2017-12-19T16:00:01.519Z,89.20
2017-12-19T16:02:31.449Z,89.50
2017-12-19T16:05:00.605Z,89.50
2017-12-19T16:07:28.905Z,89.50
2017-12-19T16:09:57.933Z,89.60
2017-12-19T16:12:26.355Z,89.70
2017-12-19T16:14:55.572Z,90.20
2017-12-19T16:17:23.905Z,89.80
2017-12-19T16:19:52.979Z,89.80
2017-12-19T16:22:21.305Z,89.80
2017-12-19T16:24:49.617Z,89.90
2017-12-19T16:27:17.918Z,89.90
2017-12-19T16:29:46.239Z,90.00
2017-12-19T16:32:15.341Z,90.20
2017-12-19T16:34:44.416Z,90.20
2017-12-19T16:37:12.747Z,90.20
2017-12-19T16:39:41.049Z,90.30
2017-12-19T16:42:10.160Z,90.40
2017-12-19T16:44:38.941Z,90.40
2017-12-19T16:47:07.265Z,90.30
2017-12-19T16:49:35.765Z,90.40
2017-12-19T16:52:04.885Z,90.40
2017-12-19T16:54:33.232Z,90.40
2017-12-19T16:57:01.755Z,90.40
2017-12-19T16:59:30.071Z,90.40
2017-12-19T17:01:58.385Z,90.40
2017-12-19T17:04:26.712Z,90.30
2017-12-19T17:06:55.033Z,90.40
2017-12-19T17:09:23.337Z,90.30
2017-12-19T17:11:52.420Z,90.30
2017-12-19T17:14:20.737Z,90.30
2017-12-19T17:16:49.080Z,90.80
2017-12-19T17:19:17.396Z,90.50
2017-12-19T17:21:45.796Z,90.60
2017-12-19T17:24:14.160Z,90.60
2017-12-19T17:26:43.255Z,90.60
2017-12-19T17:29:12.334Z,90.70
2017-12-19T17:31:40.701Z,90.70
2017-12-19T17:34:09.025Z,90.70
2017-12-19T17:36:38.107Z,91.00
2017-12-19T17:39:07.186Z,91.10
2017-12-19T17:41:35.524Z,90.70
2017-12-19T17:44:03.842Z,90.70
2017-12-19T17:46:32.239Z,90.80
2017-12-19T17:49:00.564Z,90.80
2017-12-19T17:51:28.886Z,90.80
2017-12-19T17:53:57.196Z,90.80
2017-12-19T17:56:25.510Z,90.80
2017-12-19T17:58:53.844Z,90.80
2017-12-19T18:01:22.160Z,90.80
2017-12-19T18:03:50.470Z,90.90
2017-12-19T18:06:18.826Z,90.90
2017-12-19T18:08:47.894Z,91.10
2017-12-19T18:11:16.188Z,91.00
2017-12-19T18:13:45.248Z,91.60
2017-12-19T18:16:13.560Z,91.20
2017-12-19T18:18:41.874Z,91.30
2017-12-19T18:21:10.192Z,91.40
2017-12-19T18:23:38.513Z,91.40
2017-12-19T18:26:07.571Z,91.80
2017-12-19T18:28:35.886Z,91.50
2017-12-19T18:31:04.208Z,91.50
2017-12-19T18:33:32.511Z,91.60
2017-12-19T18:36:00.851Z,91.70
2017-12-19T18:38:29.943Z,91.80
2017-12-19T18:40:59.049Z,91.90
2017-12-19T18:43:28.156Z,91.90
2017-12-19T18:45:56.497Z,91.90
2017-12-19T18:48:24.818Z,91.90
2017-12-19T18:50:53.144Z,92.00
2017-12-19T18:53:21.518Z,92.00
2017-12-19T18:55:49.853Z,92.10
2017-12-19T18:58:18.445Z,92.20
2017-12-19T19:00:46.838Z,92.10
2017-12-19T19:03:15.158Z,92.10
2017-12-19T19:05:44.258Z,92.10
2017-12-19T19:08:12.585Z,92.40
2017-12-19T19:10:41.872Z,92.10
2017-12-19T19:13:10.996Z,92.00
2017-12-19T19:15:39.316Z,92.00
2017-12-19T19:18:07.624Z,92.00
2017-12-19T19:20:36.012Z,92.00
2017-12-19T19:23:05.101Z,92.30
2017-12-19T19:25:33.412Z,91.90
2017-12-19T19:28:01.726Z,91.90
2017-12-19T19:30:30.031Z,91.70
2017-12-19T19:32:58.337Z,91.90
2017-12-19T19:35:26.662Z,91.80
2017-12-19T19:37:54.988Z,91.80
2017-12-19T19:40:23.292Z,91.70
2017-12-19T19:42:51.622Z,91.70
2017-12-19T19:45:19.958Z,91.70
2017-12-19T19:47:48.268Z,91.70
2017-12-19T19:50:17.822Z,92.10
2017-12-19T19:52:46.134Z,91.80
2017-12-19T19:55:14.460Z,91.80
2017-12-19T19:57:42.776Z,91.80
2017-12-19T20:00:11.083Z,91.90
2017-12-19T20:02:40.174Z,91.90
2017-12-19T20:05:08.678Z,91.90
2017-12-19T20:07:37.804Z,91.80
2017-12-19T20:10:06.136Z,91.80
2017-12-19T20:12:34.448Z,91.90
2017-12-19T20:15:02.787Z,91.90
2017-12-19T20:17:31.214Z,91.80
2017-12-19T20:19:59.553Z,91.80
2017-12-19T20:22:27.848Z,91.80
2017-12-19T20:24:56.169Z,91.80
2017-12-19T20:27:24.474Z,91.80
2017-12-19T20:29:52.775Z,91.80
2017-12-19T20:32:21.099Z,91.80
2017-12-19T20:34:49.421Z,91.70
2017-12-19T20:37:17.796Z,91.70
2017-12-19T20:39:46.123Z,91.80
2017-12-19T20:42:14.456Z,91.80
2017-12-19T20:44:42.807Z,91.80
2017-12-19T20:47:11.880Z,91.70
2017-12-19T20:49:41.125Z,91.70
2017-12-19T20:52:09.515Z,91.70
2017-12-19T20:54:37.816Z,91.70
2017-12-19T20:57:06.108Z,91.80
2017-12-19T20:59:34.445Z,91.70
2017-12-19T21:02:03.591Z,91.80
2017-12-19T21:04:31.911Z,91.80
2017-12-19T21:07:00.980Z,91.80
2017-12-19T21:09:29.297Z,91.80
2017-12-19T21:11:58.381Z,91.70
2017-12-19T21:14:26.755Z,92.00
2017-12-19T21:16:55.862Z,91.70
2017-12-19T21:19:24.169Z,91.70
2017-12-19T21:21:53.374Z,91.60
2017-12-19T21:24:22.418Z,91.60
2017-12-19T21:26:50.770Z,91.60
2017-12-19T21:29:19.079Z,91.60
2017-12-19T21:31:47.373Z,91.60
2017-12-19T21:34:15.680Z,91.60
2017-12-19T21:36:44.012Z,91.60
2017-12-19T21:39:13.537Z,91.60
2017-12-19T21:41:42.806Z,91.50
2017-12-19T21:44:12.647Z,91.60
2017-12-19T21:46:46.303Z,91.60
2017-12-19T21:49:15.500Z,91.60
2017-12-19T21:51:44.607Z,91.90
2017-12-19T21:54:13.666Z,91.50
2017-12-19T21:56:41.987Z,91.50
2017-12-19T21:59:10.308Z,91.50
2017-12-19T22:01:38.637Z,91.60
2017-12-19T22:04:06.953Z,91.60
2017-12-19T22:06:35.281Z,91.70
2017-12-19T22:09:03.582Z,91.70
2017-12-19T22:11:31.904Z,91.70
2017-12-19T22:14:00.217Z,91.40
2017-12-19T22:16:28.539Z,91.70
2017-12-19T22:18:57.652Z,91.60
2017-12-19T22:21:26.720Z,91.60
2017-12-19T22:23:55.025Z,91.60
2017-12-19T22:26:24.128Z,91.60
2017-12-19T22:28:56.181Z,91.50
2017-12-19T22:31:21.543Z,91.50
2017-12-19T22:33:49.852Z,91.50
2017-12-19T22:36:18.183Z,91.50
2017-12-19T22:38:46.489Z,91.50
2017-12-19T22:41:14.781Z,91.50
2017-12-19T22:43:43.115Z,91.50
2017-12-19T22:46:12.175Z,91.50
2017-12-19T22:48:40.489Z,91.60
2017-12-19T22:51:09.618Z,91.50
2017-12-19T22:53:38.147Z,91.50
2017-12-19T22:56:06.465Z,91.50
2017-12-19T22:58:35.556Z,91.60
2017-12-19T23:01:04.647Z,91.60
2017-12-19T23:03:32.965Z,91.60
2017-12-19T23:06:01.288Z,91.50
2017-12-19T23:08:29.610Z,91.50
2017-12-19T23:10:58.693Z,91.60
2017-12-19T23:13:27.789Z,91.90
2017-12-19T23:15:56.150Z,91.70
2017-12-19T23:18:24.457Z,91.70
2017-12-19T23:20:52.752Z,91.70
2017-12-19T23:23:21.823Z,91.70
2017-12-19T23:25:50.146Z,91.70
2017-12-19T23:28:18.454Z,91.70
2017-12-19T23:30:46.763Z,91.70
2017-12-19T23:33:15.081Z,91.70
2017-12-19T23:35:44.147Z,91.70
2017-12-19T23:38:12.443Z,91.70
2017-12-19T23:40:41.549Z,91.70
2017-12-19T23:43:10.679Z,91.80
2017-12-19T23:45:38.997Z,91.80
2017-12-19T23:48:07.301Z,91.80
2017-12-19T23:50:35.614Z,91.80
2017-12-19T23:53:04.694Z,91.90
2017-12-19T23:55:33.764Z,91.90
2017-12-19T23:58:02.087Z,91.90
